sensor_id;sensor_type;location;lat;lon;timestamp;pressure;altitude;pressure_sealevel;temperature;humidity
34983;BME280;21187;50.976;13.720;2023-07-20T00:03:30;97825.25;;;19.54;57.32
34983;BME280;21187;50.976;13.720;2023-07-20T00:08:32;97828.78;;;19.55;57.50
34983;BME280;21187;50.976;13.720;2023-07-20T00:13:34;97822.09;;;19.56;57.48
34983;BME280;21187;50.976;13.720;2023-07-20T00:18:36;97828.16;;;19.67;57.18
34983;BME280;21187;50.976;13.720;2023-07-20T00:23:38;97830.34;;;19.56;57.46
34983;BME280;21187;50.976;13.720;2023-07-20T00:28:40;97831.06;;;19.60;57.39
34983;BME280;21187;50.976;13.720;2023-07-20T00:33:42;97824.56;;;19.70;56.64
34983;BME280;21187;50.976;13.720;2023-07-20T00:38:44;97814.19;;;19.82;56.29
34983;BME280;21187;50.976;13.720;2023-07-20T00:43:46;97828.44;;;19.73;56.33
34983;BME280;21187;50.976;13.720;2023-07-20T00:48:48;97836.16;;;19.58;56.85
34983;BME280;21187;50.976;13.720;2023-07-20T00:53:50;97838.38;;;19.67;56.40
34983;BME280;21187;50.976;13.720;2023-07-20T00:58:52;97846.53;;;19.70;56.15
34983;BME280;21187;50.976;13.720;2023-07-20T01:03:55;97829.09;;;19.81;55.76
34983;BME280;21187;50.976;13.720;2023-07-20T01:09:06;97825.84;;;19.89;55.64
34983;BME280;21187;50.976;13.720;2023-07-20T01:14:11;97819.69;;;19.82;55.88
34983;BME280;21187;50.976;13.720;2023-07-20T01:19:13;97827.09;;;19.61;56.44
34983;BME280;21187;50.976;13.720;2023-07-20T01:24:28;97833.31;;;19.65;56.29
34983;BME280;21187;50.976;13.720;2023-07-20T01:35:05;97832.34;;;19.75;55.62
34983;BME280;21187;50.976;13.720;2023-07-20T01:40:09;97829.94;;;19.77;55.69
34983;BME280;21187;50.976;13.720;2023-07-20T01:45:11;97834.97;;;19.59;56.25
34983;BME280;21187;50.976;13.720;2023-07-20T01:50:13;97834.28;;;19.55;56.17
34983;BME280;21187;50.976;13.720;2023-07-20T01:55:15;97845.97;;;19.59;56.07
34983;BME280;21187;50.976;13.720;2023-07-20T02:00:17;97837.25;;;19.64;55.85
34983;BME280;21187;50.976;13.720;2023-07-20T02:05:22;97824.72;;;19.63;55.70
34983;BME280;21187;50.976;13.720;2023-07-20T02:10:24;97827.88;;;19.61;55.76
34983;BME280;21187;50.976;13.720;2023-07-20T02:15:26;97838.97;;;19.54;55.99
34983;BME280;21187;50.976;13.720;2023-07-20T02:20:29;97845.50;;;19.40;56.06
34983;BME280;21187;50.976;13.720;2023-07-20T02:25:31;97847.81;;;19.42;55.98
34983;BME280;21187;50.976;13.720;2023-07-20T02:30:32;97843.03;;;19.46;55.75
34983;BME280;21187;50.976;13.720;2023-07-20T02:35:36;97847.34;;;19.47;55.61
34983;BME280;21187;50.976;13.720;2023-07-20T02:40:38;97840.09;;;19.33;56.01
34983;BME280;21187;50.976;13.720;2023-07-20T02:45:41;97842.50;;;19.31;56.12
34983;BME280;21187;50.976;13.720;2023-07-20T02:50:44;97852.44;;;19.21;56.43
34983;BME280;21187;50.976;13.720;2023-07-20T02:55:46;97856.28;;;19.00;57.24
34983;BME280;21187;50.976;13.720;2023-07-20T03:00:48;97864.75;;;18.82;58.07
34983;BME280;21187;50.976;13.720;2023-07-20T03:05:50;97865.25;;;18.73;57.93
34983;BME280;21187;50.976;13.720;2023-07-20T03:10:56;97869.03;;;18.83;57.64
34983;BME280;21187;50.976;13.720;2023-07-20T03:15:58;97869.72;;;18.91;57.26
34983;BME280;21187;50.976;13.720;2023-07-20T03:21:00;97873.56;;;18.97;57.13
34983;BME280;21187;50.976;13.720;2023-07-20T03:26:02;97883.00;;;18.96;57.21
34983;BME280;21187;50.976;13.720;2023-07-20T03:31:05;97876.63;;;18.72;57.99
34983;BME280;21187;50.976;13.720;2023-07-20T03:36:11;97878.38;;;18.58;58.50
34983;BME280;21187;50.976;13.720;2023-07-20T03:41:13;97885.00;;;18.61;58.53
34983;BME280;21187;50.976;13.720;2023-07-20T03:46:17;97864.41;;;18.76;58.03
34983;BME280;21187;50.976;13.720;2023-07-20T03:51:19;97879.94;;;18.90;57.64
34983;BME280;21187;50.976;13.720;2023-07-20T03:56:22;97884.44;;;19.04;57.29
34983;BME280;21187;50.976;13.720;2023-07-20T04:01:24;97881.16;;;19.17;57.10
34983;BME280;21187;50.976;13.720;2023-07-20T04:06:26;97883.06;;;19.20;57.18
34983;BME280;21187;50.976;13.720;2023-07-20T04:11:28;97887.34;;;19.21;57.35
34983;BME280;21187;50.976;13.720;2023-07-20T04:16:30;97891.19;;;19.27;57.30
34983;BME280;21187;50.976;13.720;2023-07-20T04:21:32;97876.38;;;19.21;57.63
34983;BME280;21187;50.976;13.720;2023-07-20T04:26:34;97878.88;;;19.11;58.20
34983;BME280;21187;50.976;13.720;2023-07-20T04:31:37;97884.56;;;18.97;58.97
34983;BME280;21187;50.976;13.720;2023-07-20T04:36:39;97892.53;;;18.84;59.68
34983;BME280;21187;50.976;13.720;2023-07-20T04:41:41;97883.81;;;18.93;59.40
34983;BME280;21187;50.976;13.720;2023-07-20T04:46:43;97885.66;;;19.03;59.67
34983;BME280;21187;50.976;13.720;2023-07-20T04:51:48;97893.88;;;19.03;59.80
34983;BME280;21187;50.976;13.720;2023-07-20T04:56:51;97889.66;;;18.95;59.99
34983;BME280;21187;50.976;13.720;2023-07-20T05:01:54;97898.75;;;18.88;60.68
34983;BME280;21187;50.976;13.720;2023-07-20T05:06:56;97902.66;;;18.91;60.97
34983;BME280;21187;50.976;13.720;2023-07-20T05:11:58;97896.25;;;19.01;61.20
34983;BME280;21187;50.976;13.720;2023-07-20T05:17:01;97895.34;;;19.11;60.80
34983;BME280;21187;50.976;13.720;2023-07-20T05:22:03;97883.06;;;19.20;60.31
34983;BME280;21187;50.976;13.720;2023-07-20T05:27:07;97890.25;;;19.37;59.98
34983;BME280;21187;50.976;13.720;2023-07-20T05:32:09;97898.81;;;19.43;59.65
34983;BME280;21187;50.976;13.720;2023-07-20T05:37:11;97895.50;;;19.52;59.70
34983;BME280;21187;50.976;13.720;2023-07-20T05:42:15;97894.03;;;19.71;59.38
34983;BME280;21187;50.976;13.720;2023-07-20T05:47:17;97892.78;;;19.75;59.13
34983;BME280;21187;50.976;13.720;2023-07-20T05:52:19;97908.50;;;19.75;59.06
34983;BME280;21187;50.976;13.720;2023-07-20T05:57:21;97915.59;;;19.72;59.25
34983;BME280;21187;50.976;13.720;2023-07-20T06:02:23;97922.59;;;19.77;58.99
34983;BME280;21187;50.976;13.720;2023-07-20T06:07:25;97925.19;;;19.88;58.73
34983;BME280;21187;50.976;13.720;2023-07-20T06:12:27;97922.31;;;19.95;58.37
34983;BME280;21187;50.976;13.720;2023-07-20T06:17:29;97917.72;;;19.88;58.88
34983;BME280;21187;50.976;13.720;2023-07-20T06:22:30;97916.28;;;20.04;58.29
34983;BME280;21187;50.976;13.720;2023-07-20T06:27:32;97930.44;;;20.26;57.88
34983;BME280;21187;50.976;13.720;2023-07-20T06:32:34;97946.13;;;20.25;57.47
34983;BME280;21187;50.976;13.720;2023-07-20T06:37:36;97953.59;;;20.05;57.75
34983;BME280;21187;50.976;13.720;2023-07-20T06:42:38;97956.72;;;19.79;58.58
34983;BME280;21187;50.976;13.720;2023-07-20T06:47:43;97955.38;;;19.64;58.18
34983;BME280;21187;50.976;13.720;2023-07-20T06:52:45;97953.03;;;19.35;58.65
34983;BME280;21187;50.976;13.720;2023-07-20T06:57:50;97953.19;;;19.24;59.19
34983;BME280;21187;50.976;13.720;2023-07-20T07:02:53;97965.59;;;19.36;59.02
34983;BME280;21187;50.976;13.720;2023-07-20T07:07:55;97964.53;;;19.54;58.85
34983;BME280;21187;50.976;13.720;2023-07-20T07:12:57;97959.53;;;19.49;59.29
34983;BME280;21187;50.976;13.720;2023-07-20T07:17:58;97965.31;;;19.54;59.26
34983;BME280;21187;50.976;13.720;2023-07-20T07:23:01;97970.41;;;19.56;59.60
34983;BME280;21187;50.976;13.720;2023-07-20T07:28:03;97973.75;;;19.67;59.69
34983;BME280;21187;50.976;13.720;2023-07-20T07:33:05;97972.91;;;19.70;59.94
34983;BME280;21187;50.976;13.720;2023-07-20T07:38:07;97975.28;;;19.72;60.04
34983;BME280;21187;50.976;13.720;2023-07-20T07:43:29;97970.09;;;19.77;60.01
34983;BME280;21187;50.976;13.720;2023-07-20T07:48:31;97973.56;;;19.82;59.92
34983;BME280;21187;50.976;13.720;2023-07-20T07:53:33;97969.22;;;20.08;60.03
34983;BME280;21187;50.976;13.720;2023-07-20T07:58:35;97964.13;;;20.30;58.78
34983;BME280;21187;50.976;13.720;2023-07-20T08:03:37;97964.66;;;20.65;58.29
34983;BME280;21187;50.976;13.720;2023-07-20T08:08:39;97963.78;;;20.92;57.43
34983;BME280;21187;50.976;13.720;2023-07-20T08:13:41;97971.19;;;20.95;56.67
34983;BME280;21187;50.976;13.720;2023-07-20T08:18:43;97973.78;;;21.02;56.00
34983;BME280;21187;50.976;13.720;2023-07-20T08:23:47;97977.06;;;21.34;56.09
34983;BME280;21187;50.976;13.720;2023-07-20T08:28:49;97983.03;;;21.49;55.19
34983;BME280;21187;50.976;13.720;2023-07-20T08:33:51;97976.84;;;21.44;54.31
34983;BME280;21187;50.976;13.720;2023-07-20T08:38:53;97976.28;;;21.33;54.47
34983;BME280;21187;50.976;13.720;2023-07-20T08:43:56;97967.94;;;21.57;54.39
34983;BME280;21187;50.976;13.720;2023-07-20T08:48:59;97977.94;;;22.00;53.65
34983;BME280;21187;50.976;13.720;2023-07-20T08:54:06;97978.75;;;22.30;53.33
34983;BME280;21187;50.976;13.720;2023-07-20T08:59:08;97978.13;;;22.55;52.59
34983;BME280;21187;50.976;13.720;2023-07-20T09:04:11;97979.28;;;22.71;52.05
34983;BME280;21187;50.976;13.720;2023-07-20T09:09:13;97981.56;;;22.89;51.18
34983;BME280;21187;50.976;13.720;2023-07-20T09:14:15;97990.09;;;23.07;50.67
34983;BME280;21187;50.976;13.720;2023-07-20T09:19:17;97986.81;;;23.13;49.47
34983;BME280;21187;50.976;13.720;2023-07-20T09:24:20;97977.84;;;23.08;48.57
34983;BME280;21187;50.976;13.720;2023-07-20T09:29:22;97987.03;;;22.76;48.41
34983;BME280;21187;50.976;13.720;2023-07-20T09:34:24;97975.00;;;22.83;49.04
34983;BME280;21187;50.976;13.720;2023-07-20T09:39:29;97983.91;;;23.03;48.73
34983;BME280;21187;50.976;13.720;2023-07-20T09:44:31;97978.66;;;23.22;49.05
34983;BME280;21187;50.976;13.720;2023-07-20T09:49:42;97966.31;;;23.65;48.23
34983;BME280;21187;50.976;13.720;2023-07-20T09:54:47;97979.91;;;23.72;47.73
34983;BME280;21187;50.976;13.720;2023-07-20T09:59:49;97981.34;;;23.64;47.84
34983;BME280;21187;50.976;13.720;2023-07-20T10:04:53;97977.47;;;23.62;47.50
34983;BME280;21187;50.976;13.720;2023-07-20T10:09:59;97976.25;;;23.50;47.04
34983;BME280;21187;50.976;13.720;2023-07-20T10:15:15;97973.03;;;23.51;47.24
34983;BME280;21187;50.976;13.720;2023-07-20T10:20:19;97976.56;;;23.77;46.44
34983;BME280;21187;50.976;13.720;2023-07-20T10:25:23;97976.50;;;23.94;45.55
34983;BME280;21187;50.976;13.720;2023-07-20T10:30:26;97971.38;;;24.05;45.20
34983;BME280;21187;50.976;13.720;2023-07-20T10:35:28;97963.94;;;24.15;44.95
34983;BME280;21187;50.976;13.720;2023-07-20T10:40:32;97959.50;;;24.18;44.51
34983;BME280;21187;50.976;13.720;2023-07-20T10:45:52;97965.78;;;24.31;45.16
34983;BME280;21187;50.976;13.720;2023-07-20T10:51:19;97959.25;;;24.60;45.15
34983;BME280;21187;50.976;13.720;2023-07-20T10:56:23;97952.56;;;24.70;45.37
34983;BME280;21187;50.976;13.720;2023-07-20T11:01:28;97949.06;;;25.01;45.07
34983;BME280;21187;50.976;13.720;2023-07-20T11:06:34;97961.28;;;25.35;45.02
34983;BME280;21187;50.976;13.720;2023-07-20T11:11:38;97954.19;;;25.12;45.44
34983;BME280;21187;50.976;13.720;2023-07-20T11:16:42;97976.13;;;24.75;45.49
34983;BME280;21187;50.976;13.720;2023-07-20T11:21:47;97972.00;;;24.22;46.40
34983;BME280;21187;50.976;13.720;2023-07-20T11:27:04;97968.28;;;24.03;46.63
34983;BME280;21187;50.976;13.720;2023-07-20T11:32:07;97966.94;;;23.95;46.94
34983;BME280;21187;50.976;13.720;2023-07-20T11:37:09;97973.28;;;23.96;47.10
34983;BME280;21187;50.976;13.720;2023-07-20T11:42:12;97972.16;;;24.06;46.99
34983;BME280;21187;50.976;13.720;2023-07-20T11:47:40;97961.59;;;24.14;46.70
34983;BME280;21187;50.976;13.720;2023-07-20T11:52:44;97961.28;;;24.12;46.99
34983;BME280;21187;50.976;13.720;2023-07-20T11:58:02;97956.44;;;24.03;46.73
34983;BME280;21187;50.976;13.720;2023-07-20T12:03:06;97967.38;;;23.81;47.42
34983;BME280;21187;50.976;13.720;2023-07-20T12:08:11;97975.91;;;23.73;47.41
34983;BME280;21187;50.976;13.720;2023-07-20T12:13:14;97977.38;;;23.65;47.91
34983;BME280;21187;50.976;13.720;2023-07-20T12:18:16;97979.25;;;23.68;47.99
34983;BME280;21187;50.976;13.720;2023-07-20T12:23:18;97985.22;;;23.80;47.47
34983;BME280;21187;50.976;13.720;2023-07-20T12:28:20;97981.34;;;23.64;47.84
34983;BME280;21187;50.976;13.720;2023-07-20T12:33:24;97992.38;;;23.38;47.84
34983;BME280;21187;50.976;13.720;2023-07-20T12:38:26;98006.09;;;23.00;48.37
34983;BME280;21187;50.976;13.720;2023-07-20T12:43:29;98006.56;;;22.69;48.95
34983;BME280;21187;50.976;13.720;2023-07-20T12:48:33;98020.31;;;22.39;49.72
34983;BME280;21187;50.976;13.720;2023-07-20T12:53:36;98045.31;;;22.16;50.37
34983;BME280;21187;50.976;13.720;2023-07-20T12:58:38;98048.47;;;21.44;52.34
34983;BME280;21187;50.976;13.720;2023-07-20T13:03:40;98032.94;;;20.94;53.47
34983;BME280;21187;50.976;13.720;2023-07-20T13:08:45;98024.97;;;20.56;54.88
34983;BME280;21187;50.976;13.720;2023-07-20T13:13:47;98024.97;;;20.32;55.58
34983;BME280;21187;50.976;13.720;2023-07-20T13:18:49;98010.06;;;20.53;55.51
34983;BME280;21187;50.976;13.720;2023-07-20T13:23:51;98005.09;;;20.68;55.15
34983;BME280;21187;50.976;13.720;2023-07-20T13:28:53;97992.78;;;20.97;54.20
34983;BME280;21187;50.976;13.720;2023-07-20T13:33:56;97983.81;;;21.13;53.89
34983;BME280;21187;50.976;13.720;2023-07-20T13:39:01;97997.94;;;21.15;53.52
34983;BME280;21187;50.976;13.720;2023-07-20T13:44:06;98004.72;;;20.90;54.61
34983;BME280;21187;50.976;13.720;2023-07-20T13:49:08;97996.59;;;21.03;54.14
34983;BME280;21187;50.976;13.720;2023-07-20T13:54:12;97999.91;;;20.94;53.98
34983;BME280;21187;50.976;13.720;2023-07-20T13:59:17;98003.53;;;20.71;54.51
34983;BME280;21187;50.976;13.720;2023-07-20T14:04:19;98009.16;;;20.60;54.47
34983;BME280;21187;50.976;13.720;2023-07-20T14:09:21;98018.75;;;20.52;54.58
34983;BME280;21187;50.976;13.720;2023-07-20T14:14:24;98008.22;;;20.70;54.62
34983;BME280;21187;50.976;13.720;2023-07-20T14:19:26;98011.91;;;20.84;54.25
34983;BME280;21187;50.976;13.720;2023-07-20T14:24:28;98012.75;;;20.81;54.16
34983;BME280;21187;50.976;13.720;2023-07-20T14:29:30;98022.09;;;20.87;54.32
34983;BME280;21187;50.976;13.720;2023-07-20T14:34:33;98020.88;;;21.08;53.93
34983;BME280;21187;50.976;13.720;2023-07-20T14:39:40;98030.53;;;21.36;53.26
34983;BME280;21187;50.976;13.720;2023-07-20T14:44:42;98034.56;;;21.68;53.03
34983;BME280;21187;50.976;13.720;2023-07-20T14:49:44;98026.97;;;21.92;52.05
34983;BME280;21187;50.976;13.720;2023-07-20T14:54:46;98010.75;;;21.94;52.18
34983;BME280;21187;50.976;13.720;2023-07-20T14:59:48;98011.19;;;22.09;52.12
34983;BME280;21187;50.976;13.720;2023-07-20T15:04:51;97993.59;;;22.36;51.60
34983;BME280;21187;50.976;13.720;2023-07-20T15:09:53;97993.31;;;22.47;51.58
34983;BME280;21187;50.976;13.720;2023-07-20T15:15:06;97996.19;;;22.73;50.32
34983;BME280;21187;50.976;13.720;2023-07-20T15:20:11;97988.69;;;22.73;49.20
34983;BME280;21187;50.976;13.720;2023-07-20T15:25:13;97997.63;;;22.77;48.63
34983;BME280;21187;50.976;13.720;2023-07-20T15:30:16;97990.16;;;22.91;48.43
34983;BME280;21187;50.976;13.720;2023-07-20T15:35:38;97999.81;;;22.99;47.81
34983;BME280;21187;50.976;13.720;2023-07-20T15:40:43;97982.34;;;23.02;47.47
34983;BME280;21187;50.976;13.720;2023-07-20T15:45:47;97982.25;;;23.06;47.33
34983;BME280;21187;50.976;13.720;2023-07-20T15:50:53;97990.66;;;23.02;47.24
34983;BME280;21187;50.976;13.720;2023-07-20T15:55:55;97995.25;;;23.22;47.21
34983;BME280;21187;50.976;13.720;2023-07-20T16:00:58;97982.66;;;23.34;46.88
34983;BME280;21187;50.976;13.720;2023-07-20T16:06:00;97999.88;;;23.25;46.35
34983;BME280;21187;50.976;13.720;2023-07-20T16:11:05;97990.16;;;23.33;46.18
34983;BME280;21187;50.976;13.720;2023-07-20T16:16:07;97993.50;;;23.28;45.63
34983;BME280;21187;50.976;13.720;2023-07-20T16:21:09;97992.13;;;23.20;44.90
34983;BME280;21187;50.976;13.720;2023-07-20T16:26:11;97986.81;;;23.13;45.43
34983;BME280;21187;50.976;13.720;2023-07-20T16:31:14;97988.16;;;23.21;45.10
34983;BME280;21187;50.976;13.720;2023-07-20T16:36:17;97987.09;;;23.31;44.80
34983;BME280;21187;50.976;13.720;2023-07-20T16:41:19;97980.66;;;23.34;44.45
34983;BME280;21187;50.976;13.720;2023-07-20T16:46:42;97972.25;;;23.25;43.96
34983;BME280;21187;50.976;13.720;2023-07-20T16:51:47;97974.28;;;23.08;43.83
34983;BME280;21187;50.976;13.720;2023-07-20T16:56:49;97986.81;;;23.13;43.99
34983;BME280;21187;50.976;13.720;2023-07-20T17:01:52;97973.16;;;23.22;43.91
34983;BME280;21187;50.976;13.720;2023-07-20T17:06:55;97977.34;;;23.14;43.63
34983;BME280;21187;50.976;13.720;2023-07-20T17:11:58;97977.81;;;22.96;43.53
34983;BME280;21187;50.976;13.720;2023-07-20T17:17:01;97967.28;;;22.77;43.35
34983;BME280;21187;50.976;13.720;2023-07-20T17:22:03;97969.88;;;22.68;42.97
34983;BME280;21187;50.976;13.720;2023-07-20T17:27:06;97964.88;;;22.50;42.85
34983;BME280;21187;50.976;13.720;2023-07-20T17:32:11;97970.13;;;22.44;42.59
34983;BME280;21187;50.976;13.720;2023-07-20T17:37:13;97968.69;;;22.40;42.68
34983;BME280;21187;50.976;13.720;2023-07-20T17:42:18;97967.22;;;22.35;42.88
34983;BME280;21187;50.976;13.720;2023-07-20T17:47:23;97971.25;;;22.47;42.98
34983;BME280;21187;50.976;13.720;2023-07-20T17:52:25;97961.75;;;22.48;43.07
34983;BME280;21187;50.976;13.720;2023-07-20T17:57:28;97967.50;;;22.54;43.07
34983;BME280;21187;50.976;13.720;2023-07-20T18:02:58;97963.09;;;22.43;43.10
34983;BME280;21187;50.976;13.720;2023-07-20T18:08:01;97959.13;;;22.28;43.48
34983;BME280;21187;50.976;13.720;2023-07-20T18:13:03;97956.72;;;22.14;43.99
34983;BME280;21187;50.976;13.720;2023-07-20T18:18:05;97950.00;;;22.15;43.80
34983;BME280;21187;50.976;13.720;2023-07-20T18:23:09;97957.59;;;22.10;43.54
34983;BME280;21187;50.976;13.720;2023-07-20T18:28:11;97956.84;;;21.93;43.67
34983;BME280;21187;50.976;13.720;2023-07-20T18:33:13;97955.19;;;21.96;44.06
34983;BME280;21187;50.976;13.720;2023-07-20T18:38:15;97946.94;;;21.96;44.01
34983;BME280;21187;50.976;13.720;2023-07-20T18:43:17;97956.03;;;21.93;44.31
34983;BME280;21187;50.976;13.720;2023-07-20T18:48:19;97964.13;;;21.84;44.29
34983;BME280;21187;50.976;13.720;2023-07-20T18:53:22;97960.25;;;21.81;44.17
34983;BME280;21187;50.976;13.720;2023-07-20T18:58:24;97972.50;;;21.80;44.34
34983;BME280;21187;50.976;13.720;2023-07-20T19:03:26;97963.78;;;21.65;44.49
34983;BME280;21187;50.976;13.720;2023-07-20T19:08:28;97970.16;;;21.62;44.53
34983;BME280;21187;50.976;13.720;2023-07-20T19:13:31;97963.78;;;21.65;45.04
34983;BME280;21187;50.976;13.720;2023-07-20T19:18:34;97983.50;;;21.64;44.63
34983;BME280;21187;50.976;13.720;2023-07-20T19:23:39;97991.03;;;21.63;44.59
34983;BME280;21187;50.976;13.720;2023-07-20T19:28:42;97998.56;;;21.59;44.71
34983;BME280;21187;50.976;13.720;2023-07-20T19:33:44;98005.09;;;21.49;44.93
34983;BME280;21187;50.976;13.720;2023-07-20T19:38:46;97992.66;;;21.40;44.96
34983;BME280;21187;50.976;13.720;2023-07-20T19:43:49;98007.78;;;21.32;45.09
34983;BME280;21187;50.976;13.720;2023-07-20T19:48:51;98003.22;;;21.25;45.23
34983;BME280;21187;50.976;13.720;2023-07-20T19:53:53;98003.44;;;21.15;45.07
34983;BME280;21187;50.976;13.720;2023-07-20T19:58:58;98008.38;;;21.03;45.47
34983;BME280;21187;50.976;13.720;2023-07-20T20:04:00;98011.41;;;20.89;45.72
34983;BME280;21187;50.976;13.720;2023-07-20T20:09:05;98013.66;;;20.74;45.84
34983;BME280;21187;50.976;13.720;2023-07-20T20:14:07;98009.06;;;20.67;45.78
34983;BME280;21187;50.976;13.720;2023-07-20T20:19:09;98015.03;;;20.62;45.70
34983;BME280;21187;50.976;13.720;2023-07-20T20:24:12;98015.53;;;20.57;45.83
34983;BME280;21187;50.976;13.720;2023-07-20T20:29:14;98022.69;;;20.51;46.05
34983;BME280;21187;50.976;13.720;2023-07-20T20:34:16;98024.31;;;20.48;45.90
34983;BME280;21187;50.976;13.720;2023-07-20T20:39:18;98027.97;;;20.41;46.09
34983;BME280;21187;50.976;13.720;2023-07-20T20:44:20;98026.91;;;20.35;46.11
34983;BME280;21187;50.976;13.720;2023-07-20T20:49:28;98019.47;;;20.32;46.10
34983;BME280;21187;50.976;13.720;2023-07-20T20:54:30;98019.63;;;20.25;46.19
34983;BME280;21187;50.976;13.720;2023-07-20T20:59:32;98012.97;;;20.22;46.30
34983;BME280;21187;50.976;13.720;2023-07-20T21:04:34;98023.69;;;20.17;46.56
34983;BME280;21187;50.976;13.720;2023-07-20T21:09:36;98016.38;;;20.06;46.51
34983;BME280;21187;50.976;13.720;2023-07-20T21:14:38;98024.47;;;19.90;46.84
34983;BME280;21187;50.976;13.720;2023-07-20T21:19:40;98029.56;;;19.64;47.42
34983;BME280;21187;50.976;13.720;2023-07-20T21:24:42;98030.47;;;19.54;47.64
34983;BME280;21187;50.976;13.720;2023-07-20T21:29:45;98027.00;;;19.50;47.50
34983;BME280;21187;50.976;13.720;2023-07-20T21:34:49;98034.56;;;19.42;47.79
34983;BME280;21187;50.976;13.720;2023-07-20T21:39:51;98040.19;;;19.31;47.98
34983;BME280;21187;50.976;13.720;2023-07-20T21:44:52;98034.03;;;19.20;48.30
34983;BME280;21187;50.976;13.720;2023-07-20T21:49:54;98034.03;;;19.20;48.27
34983;BME280;21187;50.976;13.720;2023-07-20T21:54:57;98035.69;;;19.14;48.38
34983;BME280;21187;50.976;13.720;2023-07-20T22:00:02;98031.81;;;19.11;48.28
34983;BME280;21187;50.976;13.720;2023-07-20T22:05:06;98038.81;;;19.16;48.19
34983;BME280;21187;50.976;13.720;2023-07-20T22:10:09;98032.56;;;19.11;48.26
34983;BME280;21187;50.976;13.720;2023-07-20T22:15:11;98029.53;;;19.02;48.35
34983;BME280;21187;50.976;13.720;2023-07-20T22:20:14;98027.91;;;19.08;48.43
34983;BME280;21187;50.976;13.720;2023-07-20T22:25:17;98022.03;;;19.06;48.41
34983;BME280;21187;50.976;13.720;2023-07-20T22:30:19;98022.03;;;19.06;48.40
34983;BME280;21187;50.976;13.720;2023-07-20T22:35:21;98019.31;;;19.06;48.46
34983;BME280;21187;50.976;13.720;2023-07-20T22:40:23;98014.53;;;19.10;48.29
34983;BME280;21187;50.976;13.720;2023-07-20T22:45:25;98011.72;;;19.18;48.21
34983;BME280;21187;50.976;13.720;2023-07-20T22:50:28;98009.63;;;19.25;48.13
34983;BME280;21187;50.976;13.720;2023-07-20T22:55:30;98006.84;;;19.29;48.13
34983;BME280;21187;50.976;13.720;2023-07-20T23:00:32;98008.09;;;19.24;48.18
34983;BME280;21187;50.976;13.720;2023-07-20T23:05:35;97999.81;;;19.28;47.99
34983;BME280;21187;50.976;13.720;2023-07-20T23:10:37;98011.91;;;19.34;47.93
34983;BME280;21187;50.976;13.720;2023-07-20T23:15:38;98007.50;;;19.40;47.47
34983;BME280;21187;50.976;13.720;2023-07-20T23:20:41;98003.66;;;19.34;47.86
34983;BME280;21187;50.976;13.720;2023-07-20T23:25:43;98003.06;;;19.19;48.15
34983;BME280;21187;50.976;13.720;2023-07-20T23:30:46;97989.50;;;19.08;48.26
34983;BME280;21187;50.976;13.720;2023-07-20T23:35:50;97989.44;;;19.12;48.31
34983;BME280;21187;50.976;13.720;2023-07-20T23:40:53;97991.63;;;19.24;47.96
34983;BME280;21187;50.976;13.720;2023-07-20T23:45:55;97986.00;;;19.35;47.93
34983;BME280;21187;50.976;13.720;2023-07-20T23:50:57;97986.00;;;19.35;47.85
34983;BME280;21187;50.976;13.720;2023-07-20T23:55:59;97988.75;;;19.35;48.14
